createdAt,value
2023-03-19T00:00:33.231Z,4.63
2023-03-19T00:03:00.064Z,4.40
2023-03-19T00:05:26.788Z,5.10
2023-03-19T00:07:53.223Z,4.57
2023-03-19T00:10:19.723Z,4.15
2023-03-19T00:12:46.351Z,7.55
2023-03-19T00:15:14.571Z,6.32
2023-03-19T00:17:42.841Z,4.63
2023-03-19T00:20:11.564Z,6.47
2023-03-19T00:22:39.549Z,5.40
2023-03-19T00:25:06.994Z,5.25
2023-03-19T00:27:33.618Z,4.75
2023-03-19T00:30:00.241Z,4.88
2023-03-19T00:32:26.688Z,4.40
2023-03-19T00:34:53.133Z,4.05
2023-03-19T00:37:19.793Z,4.22
2023-03-19T00:39:46.360Z,4.68
2023-03-19T00:42:12.921Z,3.83
2023-03-19T00:44:39.344Z,4.40
2023-03-19T00:47:07.209Z,4.30
2023-03-19T00:49:33.755Z,4.57
2023-03-19T00:52:00.314Z,4.80
2023-03-19T00:54:27.402Z,4.05
2023-03-19T00:56:54.000Z,4.55
2023-03-19T00:59:20.471Z,4.80
2023-03-19T01:01:47.001Z,4.38
2023-03-19T01:04:14.893Z,4.65
2023-03-19T01:06:41.765Z,4.97
2023-03-19T01:09:08.365Z,4.07
2023-03-19T01:11:35.139Z,4.82
2023-03-19T01:14:02.692Z,4.55
2023-03-19T01:16:29.233Z,4.65
2023-03-19T01:18:55.765Z,4.50
2023-03-19T01:21:22.233Z,4.22
2023-03-19T01:23:48.935Z,4.78
2023-03-19T01:26:15.580Z,5.13
2023-03-19T01:28:43.349Z,4.38
2023-03-19T01:31:09.920Z,4.57
2023-03-19T01:33:37.423Z,4.63
2023-03-19T01:36:05.395Z,4.55
2023-03-19T01:38:32.511Z,3.88
2023-03-19T01:40:59.083Z,4.80
2023-03-19T01:43:28.218Z,4.45
2023-03-19T01:46:22.863Z,4.20
2023-03-19T01:48:53.284Z,4.22
2023-03-19T01:51:24.020Z,4.63
2023-03-19T01:53:55.082Z,4.40
2023-03-19T01:56:29.908Z,4.45
2023-03-19T01:58:58.867Z,4.80
2023-03-19T02:01:28.075Z,4.00
2023-03-19T02:03:55.720Z,3.90
2023-03-19T02:06:23.578Z,3.90
2023-03-19T02:08:52.417Z,4.05
2023-03-19T02:11:20.143Z,4.28
2023-03-19T02:13:47.369Z,4.15
2023-03-19T02:16:15.908Z,3.92
2023-03-19T02:18:43.208Z,4.37
2023-03-19T02:21:14.435Z,4.25
2023-03-19T02:23:59.710Z,3.83
2023-03-19T02:26:29.384Z,4.15
2023-03-19T02:28:56.336Z,4.40
2023-03-19T02:31:23.773Z,4.07
2023-03-19T02:34:00.559Z,4.18
2023-03-19T02:36:37.777Z,4.47
2023-03-19T02:39:08.563Z,4.18
2023-03-19T02:41:37.322Z,3.92
2023-03-19T02:44:04.518Z,4.20
2023-03-19T02:46:31.699Z,4.32
2023-03-19T02:48:58.282Z,3.60
2023-03-19T02:51:24.800Z,4.13
2023-03-19T02:53:51.279Z,3.67
2023-03-19T02:56:17.815Z,3.65
2023-03-19T02:58:44.298Z,3.95
2023-03-19T03:01:10.963Z,4.10
2023-03-19T03:03:37.457Z,3.50
2023-03-19T03:06:04.017Z,3.83
2023-03-19T03:08:30.530Z,3.63
2023-03-19T03:10:56.953Z,2.85
2023-03-19T03:13:23.480Z,2.80
2023-03-19T03:15:49.907Z,3.38
2023-03-19T03:18:17.223Z,3.05
2023-03-19T03:20:43.667Z,2.90
2023-03-19T03:23:10.199Z,2.90
2023-03-19T03:25:36.776Z,2.47
2023-03-19T03:28:03.246Z,2.55
2023-03-19T03:30:29.675Z,2.58
2023-03-19T03:32:56.556Z,3.03
2023-03-19T03:35:23.103Z,3.00
2023-03-19T03:37:50.471Z,2.33
2023-03-19T03:40:17.556Z,2.42
2023-03-19T03:42:45.244Z,2.75
2023-03-19T03:45:12.320Z,2.60
2023-03-19T03:47:39.537Z,2.30
2023-03-19T03:50:07.158Z,2.90
2023-03-19T03:52:34.170Z,2.10
2023-03-19T03:55:01.117Z,2.50
2023-03-19T03:57:27.653Z,2.78
2023-03-19T03:59:54.765Z,2.55
2023-03-19T04:02:21.599Z,2.15
2023-03-19T04:04:48.749Z,2.47
2023-03-19T04:07:15.383Z,2.75
2023-03-19T04:09:42.155Z,2.65
2023-03-19T04:12:08.775Z,2.35
2023-03-19T04:14:35.669Z,2.40
2023-03-19T04:17:02.218Z,2.90
2023-03-19T04:19:28.679Z,2.78
2023-03-19T04:21:55.125Z,3.17
2023-03-19T04:24:21.769Z,2.97
2023-03-19T04:26:49.634Z,2.60
2023-03-19T04:29:16.560Z,2.60
2023-03-19T04:31:42.978Z,2.97
2023-03-19T04:34:09.537Z,2.40
2023-03-19T04:36:36.626Z,2.38
2023-03-19T04:39:03.329Z,2.80
2023-03-19T04:41:29.816Z,2.47
2023-03-19T04:43:56.443Z,2.30
2023-03-19T04:46:23.008Z,2.08
2023-03-19T04:48:49.564Z,2.60
2023-03-19T04:51:16.756Z,2.10
2023-03-19T04:53:43.523Z,2.30
2023-03-19T04:56:10.102Z,2.30
2023-03-19T04:58:36.571Z,1.77
2023-03-19T05:01:03.683Z,1.90
2023-03-19T05:03:30.194Z,1.90
2023-03-19T05:05:56.681Z,2.15
2023-03-19T05:08:23.224Z,1.60
2023-03-19T05:10:49.694Z,1.73
2023-03-19T05:13:16.164Z,1.60
2023-03-19T05:15:43.481Z,1.90
2023-03-19T05:18:10.601Z,1.80
2023-03-19T05:20:37.444Z,1.60
2023-03-19T05:23:04.291Z,1.67
2023-03-19T05:25:30.791Z,1.77
2023-03-19T05:27:57.241Z,1.60
2023-03-19T05:30:23.755Z,1.50
2023-03-19T05:32:50.246Z,1.70
2023-03-19T05:35:17.370Z,1.58
2023-03-19T05:37:43.891Z,1.75
2023-03-19T05:40:12.271Z,2.20
2023-03-19T05:42:38.739Z,1.90
2023-03-19T05:45:05.536Z,1.65
2023-03-19T05:47:31.993Z,1.73
2023-03-19T05:50:02.008Z,1.67
2023-03-19T05:52:28.588Z,1.65
2023-03-19T05:54:55.065Z,1.98
2023-03-19T05:57:21.939Z,1.75
2023-03-19T05:59:48.403Z,1.65
2023-03-19T06:02:14.920Z,1.95
2023-03-19T06:04:41.331Z,1.75
2023-03-19T06:07:07.910Z,1.65
2023-03-19T06:09:34.669Z,1.70
2023-03-19T06:12:01.182Z,1.48
2023-03-19T06:14:27.748Z,1.85
2023-03-19T06:16:54.255Z,1.58
2023-03-19T06:19:21.058Z,1.35
2023-03-19T06:21:47.585Z,1.40
2023-03-19T06:24:14.071Z,1.50
2023-03-19T06:26:40.951Z,1.40
2023-03-19T06:29:07.587Z,1.60
2023-03-19T06:31:34.252Z,1.60
2023-03-19T06:34:01.087Z,1.50
2023-03-19T06:36:27.554Z,1.33
2023-03-19T06:38:54.031Z,1.40
2023-03-19T06:41:21.186Z,1.40
2023-03-19T06:43:47.761Z,1.67
2023-03-19T06:46:14.277Z,1.35
2023-03-19T06:48:40.954Z,1.23
2023-03-19T06:51:07.437Z,1.38
2023-03-19T06:53:34.463Z,1.17
2023-03-19T06:56:01.025Z,1.48
2023-03-19T06:58:27.518Z,1.60
2023-03-19T07:00:54.120Z,1.33
2023-03-19T07:03:20.574Z,1.00
2023-03-19T07:05:49.995Z,1.20
2023-03-19T07:08:16.789Z,1.77
2023-03-19T07:10:43.257Z,1.40
2023-03-19T07:13:09.766Z,1.48
2023-03-19T07:15:36.574Z,1.55
2023-03-19T07:18:03.173Z,1.55
2023-03-19T07:20:29.773Z,1.67
2023-03-19T07:22:56.208Z,1.48
2023-03-19T07:25:22.757Z,1.58
2023-03-19T07:27:49.342Z,1.77
2023-03-19T07:30:16.314Z,1.63
2023-03-19T07:32:43.109Z,1.85
2023-03-19T07:35:10.626Z,1.92
2023-03-19T07:37:37.209Z,1.75
2023-03-19T07:40:05.077Z,1.40
2023-03-19T07:42:31.881Z,1.60
2023-03-19T07:44:58.405Z,1.77
2023-03-19T07:47:29.321Z,1.30
2023-03-19T07:49:57.151Z,1.50
2023-03-19T07:52:26.704Z,1.50
2023-03-19T07:57:19.671Z,1.58
2023-03-19T07:59:46.452Z,1.70
2023-03-19T08:02:13.554Z,1.77
2023-03-19T08:04:41.193Z,1.80
2023-03-19T08:07:10.274Z,1.85
2023-03-19T08:09:37.462Z,1.98
2023-03-19T08:12:05.367Z,2.08
2023-03-19T08:14:32.447Z,2.13
2023-03-19T08:16:59.025Z,2.72
2023-03-19T08:19:25.574Z,2.30
2023-03-19T08:21:52.072Z,2.95
2023-03-19T08:24:19.683Z,2.72
2023-03-19T08:26:46.188Z,2.97
2023-03-19T08:29:12.697Z,2.83
2023-03-19T08:31:39.174Z,2.20
2023-03-19T08:34:06.048Z,2.65
2023-03-19T08:36:32.687Z,2.78
2023-03-19T08:38:59.179Z,3.03
2023-03-19T08:41:25.678Z,2.40
2023-03-19T08:43:52.220Z,2.55
2023-03-19T08:46:18.960Z,3.17
2023-03-19T08:48:45.500Z,2.90
2023-03-19T08:51:12.137Z,3.25
2023-03-19T08:53:38.936Z,2.40
2023-03-19T08:56:07.635Z,2.28
2023-03-19T08:58:34.781Z,2.35
2023-03-19T09:01:04.195Z,2.60
2023-03-19T09:03:31.239Z,2.40
2023-03-19T09:06:00.375Z,2.00
2023-03-19T09:08:28.237Z,2.15
2023-03-19T09:10:55.963Z,2.20
2023-03-19T09:13:22.928Z,2.70
2023-03-19T09:15:49.948Z,2.28
2023-03-19T09:18:17.037Z,2.53
2023-03-19T09:20:43.646Z,2.85
2023-03-19T09:23:10.239Z,2.45
2023-03-19T09:25:36.876Z,2.60
2023-03-19T09:28:03.614Z,2.30
2023-03-19T09:30:30.178Z,2.45
2023-03-19T09:32:56.914Z,2.63
2023-03-19T09:35:24.178Z,2.33
2023-03-19T09:37:51.981Z,2.58
2023-03-19T09:40:29.662Z,2.10
2023-03-19T09:43:06.700Z,2.50
2023-03-19T09:45:33.405Z,2.40
2023-03-19T09:48:13.394Z,2.28
2023-03-19T09:50:39.962Z,2.38
2023-03-19T09:53:35.744Z,1.90
2023-03-19T09:56:05.639Z,1.92
2023-03-19T09:58:35.036Z,2.08
2023-03-19T10:04:06.740Z,1.90
2023-03-19T10:06:40.143Z,2.30
2023-03-19T10:09:43.072Z,2.20
2023-03-19T10:12:52.399Z,1.90
2023-03-19T10:15:28.158Z,2.08
2023-03-19T10:18:04.067Z,1.98
2023-03-19T10:20:42.669Z,1.88
2023-03-19T10:23:29.035Z,2.00
2023-03-19T10:25:59.056Z,2.30
2023-03-19T10:28:27.897Z,2.13
2023-03-19T10:31:28.687Z,2.10
2023-03-19T10:34:23.184Z,2.03
2023-03-19T10:36:49.611Z,2.25
2023-03-19T10:39:18.887Z,2.28
2023-03-19T10:41:56.189Z,2.15
2023-03-19T10:44:34.278Z,1.90
2023-03-19T10:47:11.843Z,2.35
2023-03-19T10:49:38.554Z,2.20
2023-03-19T10:52:06.110Z,2.30
2023-03-19T10:54:32.664Z,2.15
2023-03-19T10:57:00.614Z,1.88
2023-03-19T10:59:30.208Z,1.88
2023-03-19T11:04:43.931Z,1.80
2023-03-19T11:07:17.790Z,2.13
2023-03-19T11:09:47.703Z,2.17
2023-03-19T11:12:29.368Z,2.50
2023-03-19T11:14:58.163Z,2.70
2023-03-19T11:17:39.750Z,2.72
2023-03-19T11:20:15.783Z,2.50
2023-03-19T11:22:42.622Z,2.58
2023-03-19T11:25:19.761Z,2.30
2023-03-19T11:27:59.470Z,2.42
2023-03-19T11:30:33.422Z,2.67
2023-03-19T11:33:20.619Z,3.00
2023-03-19T11:36:05.645Z,2.90
2023-03-19T11:38:54.152Z,2.60
2023-03-19T11:41:58.974Z,3.27
2023-03-19T11:44:31.140Z,2.65
2023-03-19T11:47:27.458Z,2.40
2023-03-19T11:50:00.284Z,2.47
2023-03-19T11:52:47.918Z,2.50
2023-03-19T11:55:45.419Z,2.33
2023-03-19T11:58:52.098Z,2.55
2023-03-19T12:01:49.408Z,2.25
2023-03-19T12:04:21.710Z,2.70
2023-03-19T12:07:17.857Z,2.30
2023-03-19T12:10:16.617Z,2.70
2023-03-19T12:13:04.980Z,2.10
2023-03-19T12:15:42.681Z,2.53
2023-03-19T12:18:33.531Z,2.30
2023-03-19T12:21:14.493Z,2.35
2023-03-19T12:23:47.510Z,2.50
2023-03-19T12:26:32.093Z,2.33
2023-03-19T12:29:24.786Z,1.90
2023-03-19T12:32:16.545Z,2.38
2023-03-19T12:34:52.478Z,2.45
2023-03-19T12:37:29.134Z,2.33
2023-03-19T12:40:17.182Z,2.20
2023-03-19T12:42:43.879Z,2.22
2023-03-19T12:45:39.592Z,2.30
2023-03-19T12:48:22.033Z,2.00
2023-03-19T12:50:52.630Z,2.38
2023-03-19T12:53:53.614Z,2.08
2023-03-19T12:56:45.196Z,2.13
2023-03-19T12:59:38.339Z,1.77
2023-03-19T13:02:46.457Z,1.95
2023-03-19T13:05:37.270Z,1.95
2023-03-19T13:08:32.588Z,2.08
2023-03-19T13:11:00.661Z,2.05
2023-03-19T13:13:42.739Z,2.10
2023-03-19T13:16:33.701Z,3.83
2023-03-19T13:19:13.832Z,2.20
2023-03-19T13:21:41.668Z,2.00
2023-03-19T13:24:28.917Z,2.03
2023-03-19T13:26:58.486Z,7.28
2023-03-19T13:32:23.123Z,2.35
2023-03-19T13:34:49.628Z,1.83
2023-03-19T13:37:21.160Z,1.88
2023-03-19T13:39:49.383Z,1.98
2023-03-19T13:42:38.183Z,3.10
2023-03-19T13:45:30.895Z,2.20
2023-03-19T13:47:59.123Z,2.20
2023-03-19T13:50:28.541Z,1.50
2023-03-19T13:55:54.553Z,1.60
2023-03-19T13:58:47.389Z,1.80
2023-03-19T14:01:25.799Z,2.13
2023-03-19T14:03:56.095Z,1.73
2023-03-19T14:06:45.593Z,1.60
2023-03-19T14:12:15.762Z,2.00
2023-03-19T14:15:08.273Z,1.70
2023-03-19T14:17:53.425Z,2.00
2023-03-19T14:20:24.654Z,1.70
2023-03-19T14:23:11.401Z,2.00
2023-03-19T14:26:15.746Z,1.98
2023-03-19T14:28:48.386Z,1.90
2023-03-19T14:31:24.004Z,1.55
2023-03-19T14:33:58.056Z,1.73
2023-03-19T14:36:25.141Z,1.80
2023-03-19T14:38:58.180Z,1.88
2023-03-19T14:41:28.710Z,1.50
2023-03-19T14:44:05.684Z,1.40
2023-03-19T14:47:03.090Z,1.40
2023-03-19T14:49:41.704Z,1.25
2023-03-19T14:52:14.036Z,1.10
2023-03-19T14:54:59.411Z,1.30
2023-03-19T14:57:29.480Z,1.17
2023-03-19T14:59:56.774Z,1.30
2023-03-19T15:02:42.191Z,1.25
2023-03-19T15:05:29.908Z,1.25
2023-03-19T15:08:06.728Z,0.90
2023-03-19T15:10:49.233Z,1.23
2023-03-19T15:13:30.892Z,1.23
2023-03-19T15:16:34.642Z,1.00
2023-03-19T15:19:01.512Z,1.27
2023-03-19T15:21:32.231Z,2.00
2023-03-19T15:23:58.755Z,1.15
2023-03-19T15:26:33.964Z,1.30
2023-03-19T15:29:00.898Z,2.55
2023-03-19T15:31:51.725Z,3.33
2023-03-19T15:34:22.817Z,3.75
2023-03-19T15:36:57.999Z,1.88
2023-03-19T15:39:28.833Z,2.83
2023-03-19T15:41:57.032Z,1.83
2023-03-19T15:44:29.815Z,1.85
2023-03-19T15:46:58.092Z,2.67
2023-03-19T15:49:32.387Z,1.63
2023-03-19T15:52:02.722Z,1.88
2023-03-19T15:54:29.412Z,1.90
2023-03-19T15:56:57.160Z,1.45
2023-03-19T15:59:27.351Z,1.70
2023-03-19T16:01:58.560Z,2.40
2023-03-19T16:04:29.487Z,2.33
2023-03-19T16:06:58.441Z,2.40
2023-03-19T16:09:31.909Z,2.50
2023-03-19T16:11:58.650Z,2.83
2023-03-19T16:14:42.962Z,2.60
2023-03-19T16:17:14.664Z,2.83
2023-03-19T16:19:50.251Z,2.75
2023-03-19T16:22:20.795Z,2.42
2023-03-19T16:24:49.683Z,3.30
2023-03-19T16:27:33.400Z,2.30
2023-03-19T16:30:00.279Z,1.60
2023-03-19T16:32:31.629Z,1.50
2023-03-19T16:35:05.136Z,1.20
2023-03-19T16:37:43.232Z,1.30
2023-03-19T16:40:12.482Z,1.30
2023-03-19T16:42:41.068Z,1.40
2023-03-19T16:45:27.163Z,1.88
2023-03-19T16:47:55.541Z,2.00
2023-03-19T16:50:29.721Z,3.55
2023-03-19T16:52:58.222Z,3.38
2023-03-19T16:55:24.648Z,3.90
2023-03-19T16:58:00.836Z,3.50
2023-03-19T17:00:31.352Z,3.45
2023-03-19T17:02:58.768Z,4.20
2023-03-19T17:05:27.120Z,3.85
2023-03-19T17:07:57.342Z,4.13
2023-03-19T17:10:28.667Z,4.20
2023-03-19T17:12:56.461Z,4.68
2023-03-19T17:15:22.956Z,4.60
2023-03-19T17:17:50.350Z,4.72
2023-03-19T17:20:20.833Z,4.07
2023-03-19T17:22:47.320Z,4.60
2023-03-19T17:25:15.684Z,3.72
2023-03-19T17:27:42.116Z,3.70
2023-03-19T17:30:09.294Z,3.17
2023-03-19T17:32:37.086Z,3.70
2023-03-19T17:35:03.858Z,3.70
2023-03-19T17:37:31.583Z,2.95
2023-03-19T17:39:58.117Z,3.75
2023-03-19T17:42:25.141Z,4.30
2023-03-19T17:44:52.044Z,4.22
2023-03-19T17:47:18.878Z,3.72
2023-03-19T17:49:46.088Z,3.53
2023-03-19T17:52:17.678Z,3.40
2023-03-19T17:54:44.951Z,3.20
2023-03-19T17:57:15.390Z,4.25
2023-03-19T17:59:41.849Z,4.38
2023-03-19T18:02:27.793Z,3.97
2023-03-19T18:04:54.334Z,6.05
2023-03-19T18:07:20.875Z,4.75
2023-03-19T18:09:47.380Z,5.03
2023-03-19T18:12:13.824Z,4.80
2023-03-19T18:14:40.226Z,4.70
2023-03-19T18:17:08.170Z,4.93
2023-03-19T18:19:38.517Z,4.90
2023-03-19T18:22:17.374Z,5.10
2023-03-19T18:24:44.207Z,5.07
2023-03-19T18:27:11.048Z,4.90
2023-03-19T18:29:37.575Z,5.50
2023-03-19T18:32:11.995Z,5.30
2023-03-19T18:34:38.518Z,5.55
2023-03-19T18:37:05.282Z,5.85
2023-03-19T18:39:36.293Z,5.80
2023-03-19T18:42:02.765Z,5.43
2023-03-19T18:44:29.292Z,5.53
2023-03-19T18:46:55.776Z,5.70
2023-03-19T18:49:26.634Z,5.55
2023-03-19T18:52:02.552Z,5.75
2023-03-19T18:54:31.032Z,5.43
2023-03-19T18:56:59.849Z,5.88
2023-03-19T18:59:30.241Z,6.13
2023-03-19T19:02:03.286Z,6.22
2023-03-19T19:04:30.111Z,5.90
2023-03-19T19:06:56.816Z,5.72
2023-03-19T19:09:23.255Z,6.32
2023-03-19T19:11:49.875Z,6.45
2023-03-19T19:14:21.706Z,6.75
2023-03-19T19:16:48.627Z,7.10
2023-03-19T19:19:24.580Z,6.57
2023-03-19T19:21:52.195Z,6.00
2023-03-19T19:24:19.053Z,6.60
2023-03-19T19:26:47.784Z,6.30
2023-03-19T19:29:29.398Z,6.70
2023-03-19T19:31:56.275Z,6.75
2023-03-19T19:34:23.478Z,6.78
2023-03-19T19:36:50.954Z,5.90
2023-03-19T19:39:17.877Z,5.75
2023-03-19T19:41:44.548Z,6.63
2023-03-19T19:44:19.984Z,6.03
2023-03-19T19:46:46.512Z,6.28
2023-03-19T19:49:14.589Z,5.53
2023-03-19T19:51:41.303Z,6.60
2023-03-19T19:54:07.869Z,7.45
2023-03-19T19:56:34.408Z,6.72
2023-03-19T19:59:08.252Z,7.75
2023-03-19T20:01:34.759Z,6.97
2023-03-19T20:04:01.422Z,6.88
2023-03-19T20:06:27.976Z,6.78
2023-03-19T20:08:54.436Z,6.72
2023-03-19T20:11:25.618Z,6.43
2023-03-19T20:13:55.439Z,6.72
2023-03-19T20:16:25.799Z,7.47
2023-03-19T20:18:54.574Z,7.68
2023-03-19T20:21:21.656Z,7.07
2023-03-19T20:23:51.036Z,6.68
2023-03-19T20:26:20.964Z,6.90
2023-03-19T20:28:48.094Z,6.57
2023-03-19T20:31:34.100Z,6.68
2023-03-19T20:34:00.875Z,8.05
2023-03-19T20:36:27.335Z,8.93
2023-03-19T20:38:53.984Z,8.88
2023-03-19T20:41:23.737Z,10.07
2023-03-19T20:43:51.173Z,10.55
2023-03-19T20:46:23.170Z,10.10
2023-03-19T20:48:50.092Z,11.48
2023-03-19T20:51:24.587Z,13.02
2023-03-19T20:53:51.704Z,13.95
2023-03-19T20:56:22.578Z,13.88
2023-03-19T20:58:49.431Z,14.20
2023-03-19T21:01:17.720Z,14.93
2023-03-19T21:03:44.282Z,16.25
2023-03-19T21:06:20.533Z,17.63
2023-03-19T21:08:50.734Z,17.60
2023-03-19T21:11:19.547Z,17.88
2023-03-19T21:13:47.848Z,17.15
2023-03-19T21:16:29.125Z,17.77
2023-03-19T21:18:55.602Z,19.10
2023-03-19T21:21:33.218Z,19.27
2023-03-19T21:24:11.018Z,20.90
2023-03-19T21:26:39.746Z,20.30
2023-03-19T21:29:23.853Z,20.80
2023-03-19T21:31:56.533Z,21.98
2023-03-19T21:34:23.035Z,22.52
2023-03-19T21:36:49.475Z,23.95
2023-03-19T21:39:16.977Z,24.15
2023-03-19T21:41:43.673Z,24.67
2023-03-19T21:44:14.635Z,23.30
2023-03-19T21:46:41.247Z,24.77
2023-03-19T21:49:11.559Z,24.20
2023-03-19T21:51:38.080Z,24.23
2023-03-19T21:54:05.474Z,24.10
2023-03-19T21:56:44.046Z,23.83
2023-03-19T21:59:19.184Z,24.13
2023-03-19T22:01:46.511Z,23.05
2023-03-19T22:04:13.045Z,24.55
2023-03-19T22:06:40.016Z,25.45
2023-03-19T22:09:06.804Z,25.30
2023-03-19T22:11:36.306Z,25.80
2023-03-19T22:16:33.490Z,24.40
2023-03-19T22:19:00.019Z,24.67
2023-03-19T22:21:26.458Z,24.00
2023-03-19T22:23:53.644Z,23.67
2023-03-19T22:26:37.283Z,22.67
2023-03-19T22:29:18.073Z,22.48
2023-03-19T22:31:45.254Z,21.67
2023-03-19T22:34:16.708Z,22.33
2023-03-19T22:36:43.405Z,22.70
2023-03-19T22:39:09.877Z,21.55
2023-03-19T22:41:39.238Z,20.92
2023-03-19T22:44:08.823Z,21.75
2023-03-19T22:46:35.726Z,22.13
2023-03-19T22:49:05.746Z,20.98
2023-03-19T22:51:32.267Z,21.00
2023-03-19T22:53:58.719Z,19.77
2023-03-19T22:56:25.188Z,20.55
2023-03-19T22:58:52.579Z,19.92
2023-03-19T23:01:29.404Z,19.15
2023-03-19T23:03:56.766Z,18.05
2023-03-19T23:06:30.589Z,17.30
2023-03-19T23:08:57.948Z,16.83
2023-03-19T23:11:24.569Z,16.20
2023-03-19T23:13:51.433Z,15.50
2023-03-19T23:16:23.401Z,15.98
2023-03-19T23:18:50.681Z,15.25
2023-03-19T23:21:21.251Z,15.13
2023-03-19T23:23:47.752Z,15.60
2023-03-19T23:26:27.471Z,15.90
2023-03-19T23:28:56.384Z,18.15
2023-03-19T23:31:23.066Z,18.77
2023-03-19T23:33:49.509Z,19.77
2023-03-19T23:36:17.101Z,21.73
2023-03-19T23:38:43.710Z,21.58
2023-03-19T23:41:22.285Z,21.60
2023-03-19T23:43:48.766Z,22.25
2023-03-19T23:46:15.894Z,21.95
2023-03-19T23:48:42.733Z,22.48
2023-03-19T23:51:16.167Z,21.67
2023-03-19T23:53:43.221Z,21.98
2023-03-19T23:56:22.845Z,21.77
2023-03-19T23:58:51.273Z,21.58
